Terminal Aerodrome Forecast
Issued by NWS Wilmington, OH

Current Version | Previous Version | Graphics & Text | Print | Product List | Glossary On
Versions: 1 2 3 4 5 6 7 8 9 10 11 12 13 14 15 16
000
FTUS41 KILN 181734
TAFDAY
TAF
KDAY 181734Z 1818/1918 21008KT P6SM VCSH BKN040
     FM182300 20004KT P6SM SCT040
     FM190900 00000KT 4SM BR FEW035
     FM191300 28005KT P6SM SCT050=

USA.gov is the U.S. government's official web portal to all federal, state and local government web resources and services.